Terminal Aerodrome Forecast
Issued by NWS Charleston, WV

Home | Current Version | Previous Version | Text Only | Print | Product List | Glossary On
Versions: 1 2 3 4 5 6 7 8 9 10 11 12 13 14 15 16 17 18 19 20 21 22 23 24 25 26 27 28
000
FTUS41 KRLX 032331
TAFEKN
TAF
KEKN 032331Z 0400/0424 12004KT P6SM BKN030
     FM040100 VRB03KT P6SM BKN035
     FM040500 00000KT 4SM BR BKN250
     FM040600 00000KT 2SM BR SCT001
     FM040700 00000KT 1/4SM FG VV001
     FM041100 00000KT 2SM BR BKN001
     FM041200 00000KT 4SM BR SCT001 BKN035
     FM041400 VRB04KT P6SM BKN035
     FM042000 11004KT P6SM VCTS BKN040CB=

USA.gov is the U.S. government's official web portal to all federal, state and local government web resources and services.